sensor_id;sensor_type;location;lat;lon;timestamp;P1;durP1;ratioP1;P2;durP2;ratioP2
66145;SDS011;52948;60.040;30.320;2023-07-13T00:02:25;3.10;;;1.85;;
66145;SDS011;52948;60.040;30.320;2023-07-13T00:07:28;3.30;;;1.60;;
66145;SDS011;52948;60.040;30.320;2023-07-13T00:12:32;2.42;;;1.95;;
66145;SDS011;52948;60.040;30.320;2023-07-13T00:17:36;3.65;;;2.05;;
66145;SDS011;52948;60.040;30.320;2023-07-13T00:22:40;3.35;;;2.15;;
66145;SDS011;52948;60.040;30.320;2023-07-13T00:27:43;4.15;;;2.30;;
66145;SDS011;52948;60.040;30.320;2023-07-13T00:32:46;3.80;;;2.10;;
66145;SDS011;52948;60.040;30.320;2023-07-13T00:37:48;3.50;;;1.75;;
66145;SDS011;52948;60.040;30.320;2023-07-13T00:42:53;2.78;;;1.88;;
66145;SDS011;52948;60.040;30.320;2023-07-13T00:47:55;5.55;;;2.10;;
66145;SDS011;52948;60.040;30.320;2023-07-13T00:52:59;3.17;;;1.60;;
66145;SDS011;52948;60.040;30.320;2023-07-13T00:58:01;4.40;;;2.13;;
66145;SDS011;52948;60.040;30.320;2023-07-13T01:03:04;2.50;;;2.10;;
66145;SDS011;52948;60.040;30.320;2023-07-13T01:08:07;4.32;;;2.33;;
66145;SDS011;52948;60.040;30.320;2023-07-13T01:13:10;2.95;;;2.10;;
66145;SDS011;52948;60.040;30.320;2023-07-13T01:18:15;4.88;;;1.95;;
66145;SDS011;52948;60.040;30.320;2023-07-13T01:23:22;3.42;;;1.95;;
66145;SDS011;52948;60.040;30.320;2023-07-13T01:28:26;3.53;;;2.47;;
66145;SDS011;52948;60.040;30.320;2023-07-13T01:33:30;3.83;;;2.17;;
66145;SDS011;52948;60.040;30.320;2023-07-13T01:38:32;3.08;;;2.00;;
66145;SDS011;52948;60.040;30.320;2023-07-13T01:43:36;3.40;;;1.90;;
66145;SDS011;52948;60.040;30.320;2023-07-13T01:48:38;3.83;;;2.08;;
66145;SDS011;52948;60.040;30.320;2023-07-13T01:53:41;2.45;;;1.98;;
66145;SDS011;52948;60.040;30.320;2023-07-13T01:58:43;3.15;;;1.95;;
66145;SDS011;52948;60.040;30.320;2023-07-13T02:03:46;2.22;;;1.70;;
66145;SDS011;52948;60.040;30.320;2023-07-13T02:08:49;3.38;;;1.83;;
66145;SDS011;52948;60.040;30.320;2023-07-13T02:13:51;3.58;;;2.13;;
66145;SDS011;52948;60.040;30.320;2023-07-13T02:18:54;4.97;;;2.30;;
66145;SDS011;52948;60.040;30.320;2023-07-13T02:23:57;3.88;;;2.30;;
66145;SDS011;52948;60.040;30.320;2023-07-13T02:28:59;9.95;;;2.05;;
66145;SDS011;52948;60.040;30.320;2023-07-13T02:34:02;3.47;;;2.30;;
66145;SDS011;52948;60.040;30.320;2023-07-13T02:39:05;7.10;;;2.30;;
66145;SDS011;52948;60.040;30.320;2023-07-13T02:44:12;6.70;;;2.20;;
66145;SDS011;52948;60.040;30.320;2023-07-13T02:49:16;5.35;;;1.92;;
66145;SDS011;52948;60.040;30.320;2023-07-13T02:54:18;3.55;;;1.98;;
66145;SDS011;52948;60.040;30.320;2023-07-13T02:59:20;4.38;;;2.05;;
66145;SDS011;52948;60.040;30.320;2023-07-13T03:04:22;4.72;;;2.17;;
66145;SDS011;52948;60.040;30.320;2023-07-13T03:09:25;3.42;;;1.55;;
66145;SDS011;52948;60.040;30.320;2023-07-13T03:14:29;1.98;;;1.30;;
66145;SDS011;52948;60.040;30.320;2023-07-13T03:19:32;4.10;;;1.45;;
66145;SDS011;52948;60.040;30.320;2023-07-13T03:24:34;1.77;;;1.38;;
66145;SDS011;52948;60.040;30.320;2023-07-13T03:29:39;2.10;;;1.20;;
66145;SDS011;52948;60.040;30.320;2023-07-13T03:34:42;3.38;;;1.35;;
66145;SDS011;52948;60.040;30.320;2023-07-13T03:39:45;6.93;;;1.30;;
66145;SDS011;52948;60.040;30.320;2023-07-13T03:44:48;4.60;;;1.42;;
66145;SDS011;52948;60.040;30.320;2023-07-13T03:49:55;5.90;;;1.17;;
66145;SDS011;52948;60.040;30.320;2023-07-13T03:54:57;3.28;;;1.10;;
66145;SDS011;52948;60.040;30.320;2023-07-13T04:00:00;4.35;;;1.05;;
66145;SDS011;52948;60.040;30.320;2023-07-13T04:05:02;3.92;;;1.50;;
66145;SDS011;52948;60.040;30.320;2023-07-13T04:10:05;3.88;;;1.40;;
66145;SDS011;52948;60.040;30.320;2023-07-13T04:15:07;3.53;;;1.50;;
66145;SDS011;52948;60.040;30.320;2023-07-13T04:20:10;4.88;;;1.58;;
66145;SDS011;52948;60.040;30.320;2023-07-13T04:25:12;1.35;;;1.02;;
66145;SDS011;52948;60.040;30.320;2023-07-13T04:30:15;4.28;;;1.35;;
66145;SDS011;52948;60.040;30.320;2023-07-13T04:35:18;1.42;;;0.80;;
66145;SDS011;52948;60.040;30.320;2023-07-13T04:40:22;2.35;;;0.95;;
66145;SDS011;52948;60.040;30.320;2023-07-13T04:45:24;2.95;;;1.10;;
66145;SDS011;52948;60.040;30.320;2023-07-13T04:50:26;2.78;;;0.90;;
66145;SDS011;52948;60.040;30.320;2023-07-13T04:55:28;1.23;;;0.80;;
66145;SDS011;52948;60.040;30.320;2023-07-13T05:00:32;4.45;;;1.10;;
66145;SDS011;52948;60.040;30.320;2023-07-13T05:05:34;2.00;;;1.00;;
66145;SDS011;52948;60.040;30.320;2023-07-13T05:10:36;2.75;;;1.05;;
66145;SDS011;52948;60.040;30.320;2023-07-13T05:15:38;1.58;;;0.93;;
66145;SDS011;52948;60.040;30.320;2023-07-13T05:20:41;2.15;;;1.10;;
66145;SDS011;52948;60.040;30.320;2023-07-13T05:25:43;1.30;;;1.08;;
66145;SDS011;52948;60.040;30.320;2023-07-13T05:30:46;1.17;;;0.90;;
66145;SDS011;52948;60.040;30.320;2023-07-13T05:35:49;2.13;;;0.90;;
66145;SDS011;52948;60.040;30.320;2023-07-13T05:40:54;1.45;;;0.85;;
66145;SDS011;52948;60.040;30.320;2023-07-13T05:45:57;1.92;;;1.30;;
66145;SDS011;52948;60.040;30.320;2023-07-13T05:51:00;2.72;;;1.10;;
66145;SDS011;52948;60.040;30.320;2023-07-13T05:56:02;1.80;;;1.10;;
66145;SDS011;52948;60.040;30.320;2023-07-13T06:01:06;1.10;;;0.85;;
66145;SDS011;52948;60.040;30.320;2023-07-13T06:06:12;0.77;;;0.77;;
66145;SDS011;52948;60.040;30.320;2023-07-13T06:11:19;2.67;;;1.15;;
66145;SDS011;52948;60.040;30.320;2023-07-13T06:16:23;2.80;;;1.10;;
66145;SDS011;52948;60.040;30.320;2023-07-13T06:21:25;2.65;;;1.40;;
66145;SDS011;52948;60.040;30.320;2023-07-13T06:26:27;1.85;;;1.10;;
66145;SDS011;52948;60.040;30.320;2023-07-13T06:31:30;1.20;;;0.90;;
66145;SDS011;52948;60.040;30.320;2023-07-13T06:36:33;1.40;;;0.90;;
66145;SDS011;52948;60.040;30.320;2023-07-13T06:41:35;2.00;;;1.05;;
66145;SDS011;52948;60.040;30.320;2023-07-13T06:46:38;1.38;;;1.00;;
66145;SDS011;52948;60.040;30.320;2023-07-13T06:51:40;1.17;;;0.80;;
66145;SDS011;52948;60.040;30.320;2023-07-13T06:56:43;1.13;;;1.00;;
66145;SDS011;52948;60.040;30.320;2023-07-13T07:01:45;2.80;;;1.10;;
66145;SDS011;52948;60.040;30.320;2023-07-13T07:06:47;1.17;;;0.70;;
66145;SDS011;52948;60.040;30.320;2023-07-13T07:11:49;1.55;;;0.80;;
66145;SDS011;52948;60.040;30.320;2023-07-13T07:16:51;1.70;;;1.00;;
66145;SDS011;52948;60.040;30.320;2023-07-13T07:21:54;2.05;;;1.02;;
66145;SDS011;52948;60.040;30.320;2023-07-13T07:26:56;1.45;;;0.77;;
66145;SDS011;52948;60.040;30.320;2023-07-13T07:31:58;1.30;;;1.05;;
66145;SDS011;52948;60.040;30.320;2023-07-13T07:37:02;2.28;;;1.10;;
66145;SDS011;52948;60.040;30.320;2023-07-13T07:42:04;5.80;;;1.27;;
66145;SDS011;52948;60.040;30.320;2023-07-13T07:47:07;1.60;;;0.90;;
66145;SDS011;52948;60.040;30.320;2023-07-13T07:52:09;6.57;;;1.10;;
66145;SDS011;52948;60.040;30.320;2023-07-13T07:57:11;3.10;;;1.00;;
66145;SDS011;52948;60.040;30.320;2023-07-13T08:02:13;1.38;;;1.00;;
66145;SDS011;52948;60.040;30.320;2023-07-13T08:07:16;1.73;;;1.00;;
66145;SDS011;52948;60.040;30.320;2023-07-13T08:12:18;2.97;;;1.15;;
66145;SDS011;52948;60.040;30.320;2023-07-13T08:17:20;1.15;;;1.05;;
66145;SDS011;52948;60.040;30.320;2023-07-13T08:22:22;2.63;;;1.00;;
66145;SDS011;52948;60.040;30.320;2023-07-13T08:27:25;2.45;;;1.30;;
66145;SDS011;52948;60.040;30.320;2023-07-13T08:32:28;2.78;;;1.08;;
66145;SDS011;52948;60.040;30.320;2023-07-13T08:37:30;1.90;;;0.90;;
66145;SDS011;52948;60.040;30.320;2023-07-13T08:42:37;2.08;;;1.30;;
66145;SDS011;52948;60.040;30.320;2023-07-13T08:47:47;2.50;;;1.33;;
66145;SDS011;52948;60.040;30.320;2023-07-13T08:52:55;2.83;;;1.17;;
66145;SDS011;52948;60.040;30.320;2023-07-13T08:58:02;2.35;;;1.13;;
66145;SDS011;52948;60.040;30.320;2023-07-13T09:03:12;3.53;;;1.08;;
66145;SDS011;52948;60.040;30.320;2023-07-13T09:13:37;3.33;;;1.33;;
66145;SDS011;52948;60.040;30.320;2023-07-13T09:18:45;3.22;;;1.25;;
66145;SDS011;52948;60.040;30.320;2023-07-13T09:23:53;1.40;;;1.20;;
66145;SDS011;52948;60.040;30.320;2023-07-13T09:29:13;4.45;;;1.50;;
66145;SDS011;52948;60.040;30.320;2023-07-13T09:34:25;2.55;;;1.42;;
66145;SDS011;52948;60.040;30.320;2023-07-13T09:39:39;3.28;;;1.90;;
66145;SDS011;52948;60.040;30.320;2023-07-13T09:49:45;4.72;;;1.23;;
66145;SDS011;52948;60.040;30.320;2023-07-13T09:54:48;2.40;;;1.42;;
66145;SDS011;52948;60.040;30.320;2023-07-13T09:59:52;1.98;;;1.15;;
66145;SDS011;52948;60.040;30.320;2023-07-13T10:10:13;1.75;;;1.35;;
66145;SDS011;52948;60.040;30.320;2023-07-13T10:15:19;2.50;;;1.27;;
66145;SDS011;52948;60.040;30.320;2023-07-13T10:20:23;5.93;;;1.42;;
66145;SDS011;52948;60.040;30.320;2023-07-13T10:25:31;2.22;;;1.30;;
66145;SDS011;52948;60.040;30.320;2023-07-13T10:30:35;4.43;;;1.88;;
66145;SDS011;52948;60.040;30.320;2023-07-13T10:35:42;6.33;;;1.73;;
66145;SDS011;52948;60.040;30.320;2023-07-13T10:40:50;2.03;;;1.58;;
66145;SDS011;52948;60.040;30.320;2023-07-13T10:46:06;5.40;;;1.60;;
66145;SDS011;52948;60.040;30.320;2023-07-13T10:51:09;1.75;;;1.20;;
66145;SDS011;52948;60.040;30.320;2023-07-13T10:56:22;2.55;;;1.20;;
66145;SDS011;52948;60.040;30.320;2023-07-13T11:01:39;2.53;;;1.58;;
66145;SDS011;52948;60.040;30.320;2023-07-13T11:06:42;2.22;;;1.42;;
66145;SDS011;52948;60.040;30.320;2023-07-13T11:11:47;2.53;;;1.60;;
66145;SDS011;52948;60.040;30.320;2023-07-13T11:16:50;1.58;;;1.42;;
66145;SDS011;52948;60.040;30.320;2023-07-13T11:27:22;1.45;;;1.20;;
66145;SDS011;52948;60.040;30.320;2023-07-13T11:32:33;1.42;;;1.25;;
66145;SDS011;52948;60.040;30.320;2023-07-13T11:37:35;2.13;;;1.30;;
66145;SDS011;52948;60.040;30.320;2023-07-13T11:42:37;5.28;;;1.85;;
66145;SDS011;52948;60.040;30.320;2023-07-13T11:47:40;2.50;;;1.60;;
66145;SDS011;52948;60.040;30.320;2023-07-13T11:52:42;3.45;;;1.90;;
66145;SDS011;52948;60.040;30.320;2023-07-13T11:57:47;5.18;;;2.00;;
66145;SDS011;52948;60.040;30.320;2023-07-13T12:07:55;3.28;;;1.92;;
66145;SDS011;52948;60.040;30.320;2023-07-13T12:12:58;2.17;;;1.73;;
66145;SDS011;52948;60.040;30.320;2023-07-13T12:18:02;4.85;;;1.95;;
66145;SDS011;52948;60.040;30.320;2023-07-13T12:23:05;2.80;;;2.35;;
66145;SDS011;52948;60.040;30.320;2023-07-13T12:33:33;7.20;;;2.67;;
66145;SDS011;52948;60.040;30.320;2023-07-13T12:38:35;4.15;;;2.75;;
66145;SDS011;52948;60.040;30.320;2023-07-13T12:43:37;3.70;;;2.25;;
66145;SDS011;52948;60.040;30.320;2023-07-13T12:48:40;5.65;;;2.33;;
66145;SDS011;52948;60.040;30.320;2023-07-13T12:53:47;3.42;;;2.47;;
66145;SDS011;52948;60.040;30.320;2023-07-13T12:58:56;3.65;;;2.45;;
66145;SDS011;52948;60.040;30.320;2023-07-13T13:04:01;2.83;;;2.25;;
66145;SDS011;52948;60.040;30.320;2023-07-13T13:09:11;3.35;;;2.35;;
66145;SDS011;52948;60.040;30.320;2023-07-13T13:19:27;6.47;;;2.10;;
66145;SDS011;52948;60.040;30.320;2023-07-13T13:24:30;5.13;;;2.38;;
66145;SDS011;52948;60.040;30.320;2023-07-13T13:29:32;5.00;;;1.88;;
66145;SDS011;52948;60.040;30.320;2023-07-13T13:34:36;3.10;;;2.10;;
66145;SDS011;52948;60.040;30.320;2023-07-13T13:39:38;4.18;;;1.77;;
66145;SDS011;52948;60.040;30.320;2023-07-13T13:44:40;3.40;;;1.55;;
66145;SDS011;52948;60.040;30.320;2023-07-13T13:49:42;2.70;;;2.15;;
66145;SDS011;52948;60.040;30.320;2023-07-13T13:54:45;3.20;;;1.95;;
66145;SDS011;52948;60.040;30.320;2023-07-13T13:59:47;2.65;;;2.00;;
66145;SDS011;52948;60.040;30.320;2023-07-13T14:04:50;3.00;;;1.98;;
66145;SDS011;52948;60.040;30.320;2023-07-13T14:09:58;4.57;;;1.90;;
66145;SDS011;52948;60.040;30.320;2023-07-13T14:15:01;3.85;;;1.90;;
66145;SDS011;52948;60.040;30.320;2023-07-13T14:20:05;2.47;;;1.92;;
66145;SDS011;52948;60.040;30.320;2023-07-13T14:25:13;2.65;;;2.05;;
66145;SDS011;52948;60.040;30.320;2023-07-13T14:30:18;4.70;;;1.65;;
66145;SDS011;52948;60.040;30.320;2023-07-13T14:35:22;3.47;;;1.85;;
66145;SDS011;52948;60.040;30.320;2023-07-13T14:40:28;3.05;;;2.05;;
66145;SDS011;52948;60.040;30.320;2023-07-13T14:45:32;5.10;;;2.15;;
66145;SDS011;52948;60.040;30.320;2023-07-13T14:50:34;5.20;;;2.42;;
66145;SDS011;52948;60.040;30.320;2023-07-13T14:55:37;7.22;;;2.25;;
66145;SDS011;52948;60.040;30.320;2023-07-13T15:00:39;3.47;;;2.03;;
66145;SDS011;52948;60.040;30.320;2023-07-13T15:05:41;3.33;;;2.00;;
66145;SDS011;52948;60.040;30.320;2023-07-13T15:10:44;2.55;;;2.08;;
66145;SDS011;52948;60.040;30.320;2023-07-13T15:15:47;3.40;;;1.95;;
66145;SDS011;52948;60.040;30.320;2023-07-13T15:20:51;2.90;;;1.88;;
66145;SDS011;52948;60.040;30.320;2023-07-13T15:25:57;4.20;;;1.33;;
66145;SDS011;52948;60.040;30.320;2023-07-13T15:30:59;3.08;;;1.80;;
66145;SDS011;52948;60.040;30.320;2023-07-13T15:36:02;3.13;;;1.55;;
66145;SDS011;52948;60.040;30.320;2023-07-13T15:41:10;3.63;;;1.70;;
66145;SDS011;52948;60.040;30.320;2023-07-13T15:46:18;2.15;;;1.50;;
66145;SDS011;52948;60.040;30.320;2023-07-13T15:51:23;2.83;;;1.67;;
66145;SDS011;52948;60.040;30.320;2023-07-13T15:56:27;2.90;;;1.88;;
66145;SDS011;52948;60.040;30.320;2023-07-13T16:01:30;2.88;;;1.30;;
66145;SDS011;52948;60.040;30.320;2023-07-13T16:06:35;1.60;;;1.50;;
66145;SDS011;52948;60.040;30.320;2023-07-13T16:11:38;5.82;;;1.50;;
66145;SDS011;52948;60.040;30.320;2023-07-13T16:16:41;1.30;;;1.20;;
66145;SDS011;52948;60.040;30.320;2023-07-13T16:21:44;4.43;;;1.50;;
66145;SDS011;52948;60.040;30.320;2023-07-13T16:26:48;3.08;;;1.50;;
66145;SDS011;52948;60.040;30.320;2023-07-13T16:31:58;1.35;;;1.02;;
66145;SDS011;52948;60.040;30.320;2023-07-13T16:37:01;1.65;;;1.25;;
66145;SDS011;52948;60.040;30.320;2023-07-13T16:42:08;3.40;;;1.73;;
66145;SDS011;52948;60.040;30.320;2023-07-13T16:47:13;4.38;;;1.65;;
66145;SDS011;52948;60.040;30.320;2023-07-13T16:52:17;2.55;;;1.70;;
66145;SDS011;52948;60.040;30.320;2023-07-13T16:57:23;6.20;;;2.10;;
66145;SDS011;52948;60.040;30.320;2023-07-13T17:02:35;3.67;;;1.60;;
66145;SDS011;52948;60.040;30.320;2023-07-13T17:07:40;2.90;;;1.80;;
66145;SDS011;52948;60.040;30.320;2023-07-13T17:12:45;4.60;;;1.75;;
66145;SDS011;52948;60.040;30.320;2023-07-13T17:17:48;4.38;;;1.50;;
66145;SDS011;52948;60.040;30.320;2023-07-13T17:22:51;6.00;;;1.58;;
66145;SDS011;52948;60.040;30.320;2023-07-13T17:27:53;2.58;;;1.70;;
66145;SDS011;52948;60.040;30.320;2023-07-13T17:32:56;3.00;;;2.10;;
66145;SDS011;52948;60.040;30.320;2023-07-13T17:37:59;2.22;;;1.75;;
66145;SDS011;52948;60.040;30.320;2023-07-13T17:43:02;4.57;;;1.73;;
66145;SDS011;52948;60.040;30.320;2023-07-13T17:48:04;3.63;;;1.10;;
66145;SDS011;52948;60.040;30.320;2023-07-13T17:58:10;4.32;;;1.55;;
66145;SDS011;52948;60.040;30.320;2023-07-13T18:03:14;2.42;;;1.40;;
66145;SDS011;52948;60.040;30.320;2023-07-13T18:08:20;3.67;;;1.80;;
66145;SDS011;52948;60.040;30.320;2023-07-13T18:13:22;2.75;;;1.50;;
66145;SDS011;52948;60.040;30.320;2023-07-13T18:18:25;3.40;;;1.60;;
66145;SDS011;52948;60.040;30.320;2023-07-13T18:23:28;2.67;;;1.58;;
66145;SDS011;52948;60.040;30.320;2023-07-13T18:28:30;3.05;;;1.90;;
66145;SDS011;52948;60.040;30.320;2023-07-13T18:33:32;4.43;;;1.88;;
66145;SDS011;52948;60.040;30.320;2023-07-13T18:38:34;2.22;;;1.30;;
66145;SDS011;52948;60.040;30.320;2023-07-13T18:43:38;2.13;;;1.40;;
66145;SDS011;52948;60.040;30.320;2023-07-13T18:48:40;5.68;;;1.52;;
66145;SDS011;52948;60.040;30.320;2023-07-13T18:53:42;4.30;;;1.98;;
66145;SDS011;52948;60.040;30.320;2023-07-13T18:58:44;0.98;;;0.88;;
66145;SDS011;52948;60.040;30.320;2023-07-13T19:03:47;4.20;;;1.58;;
66145;SDS011;52948;60.040;30.320;2023-07-13T19:08:52;5.82;;;2.45;;
66145;SDS011;52948;60.040;30.320;2023-07-13T19:13:54;2.38;;;1.73;;
66145;SDS011;52948;60.040;30.320;2023-07-13T19:18:57;5.38;;;1.88;;
66145;SDS011;52948;60.040;30.320;2023-07-13T19:24:01;3.55;;;1.20;;
66145;SDS011;52948;60.040;30.320;2023-07-13T19:29:04;2.17;;;1.90;;
66145;SDS011;52948;60.040;30.320;2023-07-13T19:39:17;6.28;;;1.92;;
66145;SDS011;52948;60.040;30.320;2023-07-13T19:44:24;2.58;;;1.77;;
66145;SDS011;52948;60.040;30.320;2023-07-13T19:49:27;2.53;;;1.77;;
66145;SDS011;52948;60.040;30.320;2023-07-13T19:54:30;3.30;;;1.73;;
66145;SDS011;52948;60.040;30.320;2023-07-13T19:59:32;5.18;;;2.10;;
66145;SDS011;52948;60.040;30.320;2023-07-13T20:04:35;4.10;;;2.03;;
66145;SDS011;52948;60.040;30.320;2023-07-13T20:09:37;6.05;;;1.92;;
66145;SDS011;52948;60.040;30.320;2023-07-13T20:14:39;3.00;;;1.92;;
66145;SDS011;52948;60.040;30.320;2023-07-13T20:19:42;2.67;;;1.70;;
66145;SDS011;52948;60.040;30.320;2023-07-13T20:24:44;4.22;;;1.60;;
66145;SDS011;52948;60.040;30.320;2023-07-13T20:29:47;3.55;;;2.00;;
66145;SDS011;52948;60.040;30.320;2023-07-13T20:34:49;3.90;;;1.70;;
66145;SDS011;52948;60.040;30.320;2023-07-13T20:39:51;3.65;;;1.80;;
66145;SDS011;52948;60.040;30.320;2023-07-13T20:44:53;3.60;;;2.38;;
66145;SDS011;52948;60.040;30.320;2023-07-13T20:49:56;3.75;;;1.85;;
66145;SDS011;52948;60.040;30.320;2023-07-13T20:54:59;3.90;;;1.70;;
66145;SDS011;52948;60.040;30.320;2023-07-13T21:00:03;6.00;;;1.67;;
66145;SDS011;52948;60.040;30.320;2023-07-13T21:05:11;2.53;;;1.50;;
66145;SDS011;52948;60.040;30.320;2023-07-13T21:10:24;2.90;;;1.65;;
66145;SDS011;52948;60.040;30.320;2023-07-13T21:15:29;4.05;;;1.88;;
66145;SDS011;52948;60.040;30.320;2023-07-13T21:20:33;1.90;;;1.52;;
66145;SDS011;52948;60.040;30.320;2023-07-13T21:25:37;2.55;;;1.73;;
66145;SDS011;52948;60.040;30.320;2023-07-13T21:30:40;3.05;;;1.60;;
66145;SDS011;52948;60.040;30.320;2023-07-13T21:35:43;2.72;;;1.70;;
66145;SDS011;52948;60.040;30.320;2023-07-13T21:40:46;2.50;;;1.60;;
66145;SDS011;52948;60.040;30.320;2023-07-13T21:45:49;3.90;;;2.10;;
66145;SDS011;52948;60.040;30.320;2023-07-13T21:50:53;5.28;;;2.65;;
66145;SDS011;52948;60.040;30.320;2023-07-13T21:55:58;4.05;;;2.10;;
66145;SDS011;52948;60.040;30.320;2023-07-13T22:01:02;5.80;;;2.03;;
66145;SDS011;52948;60.040;30.320;2023-07-13T22:06:06;3.75;;;2.20;;
66145;SDS011;52948;60.040;30.320;2023-07-13T22:11:15;3.70;;;2.20;;
66145;SDS011;52948;60.040;30.320;2023-07-13T22:21:28;3.47;;;2.35;;
66145;SDS011;52948;60.040;30.320;2023-07-13T22:26:34;5.95;;;2.47;;
66145;SDS011;52948;60.040;30.320;2023-07-13T22:31:38;4.10;;;2.10;;
66145;SDS011;52948;60.040;30.320;2023-07-13T22:36:40;3.08;;;2.33;;
66145;SDS011;52948;60.040;30.320;2023-07-13T22:41:43;3.47;;;2.03;;
66145;SDS011;52948;60.040;30.320;2023-07-13T22:46:45;3.72;;;2.15;;
66145;SDS011;52948;60.040;30.320;2023-07-13T22:51:48;3.72;;;2.05;;
66145;SDS011;52948;60.040;30.320;2023-07-13T22:56:50;3.40;;;2.40;;
66145;SDS011;52948;60.040;30.320;2023-07-13T23:01:53;4.90;;;2.35;;
66145;SDS011;52948;60.040;30.320;2023-07-13T23:06:56;5.65;;;2.30;;
66145;SDS011;52948;60.040;30.320;2023-07-13T23:11:59;6.28;;;3.00;;
66145;SDS011;52948;60.040;30.320;2023-07-13T23:17:01;6.85;;;3.55;;
66145;SDS011;52948;60.040;30.320;2023-07-13T23:22:05;4.85;;;3.15;;
66145;SDS011;52948;60.040;30.320;2023-07-13T23:27:07;7.85;;;2.63;;
66145;SDS011;52948;60.040;30.320;2023-07-13T23:32:10;7.20;;;2.80;;
66145;SDS011;52948;60.040;30.320;2023-07-13T23:37:16;5.38;;;2.65;;
66145;SDS011;52948;60.040;30.320;2023-07-13T23:42:18;4.40;;;2.45;;
66145;SDS011;52948;60.040;30.320;2023-07-13T23:47:21;5.22;;;2.85;;
66145;SDS011;52948;60.040;30.320;2023-07-13T23:52:23;4.78;;;2.70;;
66145;SDS011;52948;60.040;30.320;2023-07-13T23:57:25;6.93;;;2.75;;
